createdAt,value
2022-11-29T00:00:25.641Z,4.10
2022-11-29T00:03:11.304Z,3.60
2022-11-29T00:05:58.560Z,3.10
2022-11-29T00:08:44.811Z,3.88
2022-11-29T00:12:04.455Z,3.97
2022-11-29T00:14:50.016Z,3.30
2022-11-29T00:17:36.443Z,3.28
2022-11-29T00:20:22.752Z,3.60
2022-11-29T00:23:08.296Z,4.68
2022-11-29T00:25:53.823Z,3.45
2022-11-29T00:28:39.383Z,3.58
2022-11-29T00:31:30.685Z,3.83
2022-11-29T00:34:16.977Z,3.70
2022-11-29T00:37:02.361Z,3.15
2022-11-29T00:39:47.746Z,3.40
2022-11-29T00:42:33.720Z,3.67
2022-11-29T00:45:19.650Z,3.33
2022-11-29T00:48:06.693Z,3.22
2022-11-29T00:50:52.379Z,3.28
2022-11-29T00:53:39.811Z,3.50
2022-11-29T00:56:25.919Z,3.42
2022-11-29T00:59:12.458Z,4.47
2022-11-29T01:01:58.461Z,3.40
2022-11-29T01:04:44.280Z,3.45
2022-11-29T01:07:30.925Z,3.53
2022-11-29T01:10:17.026Z,4.00
2022-11-29T01:13:02.610Z,3.83
2022-11-29T01:15:56.366Z,4.45
2022-11-29T01:18:43.174Z,3.38
2022-11-29T01:21:28.834Z,3.33
2022-11-29T01:24:14.272Z,3.15
2022-11-29T01:26:59.801Z,3.53
2022-11-29T01:29:45.277Z,4.00
2022-11-29T01:32:31.340Z,3.47
2022-11-29T01:35:17.227Z,3.50
2022-11-29T01:38:04.521Z,4.03
2022-11-29T01:41:04.014Z,3.80
2022-11-29T01:44:07.363Z,3.33
2022-11-29T01:46:54.420Z,3.67
2022-11-29T01:49:44.521Z,3.75
2022-11-29T01:55:19.394Z,3.65
2022-11-29T01:58:07.645Z,3.65
2022-11-29T02:00:55.348Z,3.60
2022-11-29T02:03:41.912Z,3.75
2022-11-29T02:06:30.488Z,2.95
2022-11-29T02:09:22.957Z,3.55
2022-11-29T02:12:14.861Z,4.07
2022-11-29T02:15:16.334Z,3.40
2022-11-29T02:18:19.169Z,4.00
2022-11-29T02:21:30.195Z,4.07
2022-11-29T02:24:28.408Z,3.97
2022-11-29T02:27:24.660Z,3.85
2022-11-29T02:30:13.510Z,3.72
2022-11-29T02:33:25.779Z,3.53
2022-11-29T02:36:30.805Z,3.25
2022-11-29T02:39:20.795Z,3.22
2022-11-29T02:42:55.767Z,3.40
2022-11-29T02:45:58.264Z,2.95
2022-11-29T02:48:44.183Z,3.33
2022-11-29T02:51:58.998Z,2.90
2022-11-29T02:55:16.126Z,3.67
2022-11-29T02:58:09.935Z,3.00
2022-11-29T03:01:22.938Z,4.25
2022-11-29T03:04:46.714Z,3.55
2022-11-29T03:07:55.953Z,3.83
2022-11-29T03:10:57.281Z,3.13
2022-11-29T03:13:48.454Z,3.50
2022-11-29T03:16:51.851Z,3.22
2022-11-29T03:20:22.795Z,3.55
2022-11-29T03:23:33.890Z,3.25
2022-11-29T03:26:31.593Z,2.63
2022-11-29T03:29:43.303Z,2.97
2022-11-29T03:32:36.411Z,2.88
2022-11-29T03:35:31.280Z,3.60
2022-11-29T03:38:28.482Z,3.22
2022-11-29T03:41:28.063Z,2.78
2022-11-29T03:44:38.846Z,3.30
2022-11-29T03:47:47.123Z,3.25
2022-11-29T03:50:37.933Z,3.20
2022-11-29T03:53:56.054Z,3.55
2022-11-29T03:56:42.850Z,2.90
2022-11-29T03:59:58.278Z,3.20
2022-11-29T04:03:03.087Z,2.92
2022-11-29T04:06:05.358Z,3.17
2022-11-29T04:09:23.453Z,3.10
2022-11-29T04:12:35.907Z,3.28
2022-11-29T04:15:40.972Z,3.13
2022-11-29T04:18:46.277Z,2.90
2022-11-29T04:22:09.702Z,3.28
2022-11-29T04:25:13.498Z,3.33
2022-11-29T04:28:08.202Z,3.28
2022-11-29T04:31:04.710Z,3.30
2022-11-29T04:34:27.627Z,3.35
2022-11-29T04:37:35.464Z,3.50
2022-11-29T04:40:24.599Z,2.95
2022-11-29T04:43:49.534Z,2.95
2022-11-29T04:46:44.248Z,2.78
2022-11-29T04:49:45.828Z,3.08
2022-11-29T04:52:57.745Z,3.10
2022-11-29T04:56:10.309Z,3.10
2022-11-29T04:59:13.477Z,2.90
2022-11-29T05:02:24.572Z,3.15
2022-11-29T05:05:41.373Z,3.08
2022-11-29T05:08:46.910Z,3.72
2022-11-29T05:11:56.821Z,2.70
2022-11-29T05:15:05.138Z,2.92
2022-11-29T05:18:36.131Z,2.78
2022-11-29T05:21:27.660Z,3.50
2022-11-29T05:24:26.066Z,3.00
2022-11-29T05:27:43.614Z,3.35
2022-11-29T05:31:05.285Z,3.17
2022-11-29T05:34:35.159Z,3.17
2022-11-29T05:38:02.645Z,3.10
2022-11-29T05:41:07.972Z,3.60
2022-11-29T05:44:31.808Z,2.70
2022-11-29T05:47:31.202Z,3.38
2022-11-29T05:50:18.244Z,3.42
2022-11-29T05:53:28.360Z,4.13
2022-11-29T05:56:23.394Z,3.00
2022-11-29T05:59:18.075Z,3.35
2022-11-29T06:02:16.891Z,3.47
2022-11-29T06:05:24.802Z,3.38
2022-11-29T06:08:42.979Z,3.10
2022-11-29T06:11:38.402Z,3.25
2022-11-29T06:14:57.504Z,2.90
2022-11-29T06:18:15.184Z,3.22
2022-11-29T06:21:15.065Z,3.65
2022-11-29T06:24:24.807Z,3.60
2022-11-29T06:27:39.722Z,3.95
2022-11-29T06:30:45.590Z,3.00
2022-11-29T06:33:56.523Z,3.22
2022-11-29T06:36:47.912Z,3.30
2022-11-29T06:39:34.262Z,3.33
2022-11-29T06:42:19.947Z,3.38
2022-11-29T06:45:06.226Z,3.55
2022-11-29T06:48:06.783Z,2.70
2022-11-29T06:51:02.449Z,3.78
2022-11-29T06:54:24.257Z,5.10
2022-11-29T06:57:34.530Z,3.40
2022-11-29T07:00:28.153Z,3.00
2022-11-29T07:03:31.795Z,3.80
2022-11-29T07:06:28.802Z,3.38
2022-11-29T07:09:18.428Z,3.70
2022-11-29T07:12:04.345Z,3.65
2022-11-29T07:14:50.354Z,4.10
2022-11-29T07:17:45.224Z,3.38
2022-11-29T07:20:36.620Z,3.50
2022-11-29T07:23:28.897Z,3.72
2022-11-29T07:26:27.773Z,2.97
2022-11-29T07:29:28.413Z,4.00
2022-11-29T07:33:00.623Z,3.38
2022-11-29T07:36:11.477Z,3.67
2022-11-29T07:39:32.333Z,3.72
2022-11-29T07:42:35.229Z,3.65
2022-11-29T07:45:37.806Z,3.72
2022-11-29T07:48:23.860Z,3.50
2022-11-29T07:51:09.719Z,2.97
2022-11-29T07:53:55.339Z,3.60
2022-11-29T07:56:41.208Z,3.55
2022-11-29T07:59:26.766Z,3.70
2022-11-29T08:02:12.268Z,3.60
2022-11-29T08:04:58.504Z,3.65
2022-11-29T08:07:44.230Z,3.47
2022-11-29T08:10:30.101Z,3.35
2022-11-29T08:13:15.810Z,3.72
2022-11-29T08:16:01.407Z,3.92
2022-11-29T08:18:47.085Z,3.92
2022-11-29T08:21:32.528Z,4.03
2022-11-29T08:24:18.084Z,3.95
2022-11-29T08:27:03.962Z,3.65
2022-11-29T08:29:49.565Z,3.72
2022-11-29T08:32:35.275Z,4.40
2022-11-29T08:35:22.421Z,3.58
2022-11-29T08:38:08.356Z,4.10
2022-11-29T08:40:54.155Z,4.00
2022-11-29T08:43:39.806Z,4.20
2022-11-29T08:46:45.288Z,3.50
2022-11-29T08:49:31.259Z,3.40
2022-11-29T08:52:35.292Z,3.67
2022-11-29T08:55:23.342Z,3.58
2022-11-29T08:58:11.997Z,3.63
2022-11-29T09:00:57.784Z,3.65
2022-11-29T09:03:59.448Z,3.38
2022-11-29T09:06:45.737Z,2.97
2022-11-29T09:09:32.010Z,3.00
2022-11-29T09:12:17.686Z,3.92
2022-11-29T09:15:09.495Z,4.47
2022-11-29T09:17:55.113Z,5.07
2022-11-29T09:20:43.952Z,5.15
2022-11-29T09:23:29.438Z,6.45
2022-11-29T09:26:19.917Z,8.07
2022-11-29T09:29:06.538Z,9.95
2022-11-29T09:31:52.144Z,9.25
2022-11-29T09:34:37.722Z,9.85
2022-11-29T09:37:23.458Z,8.90
2022-11-29T09:40:18.446Z,9.07
2022-11-29T09:43:21.862Z,9.75
2022-11-29T09:46:19.901Z,7.50
2022-11-29T09:49:38.922Z,8.70
2022-11-29T09:52:47.497Z,7.70
2022-11-29T09:55:32.942Z,7.68
2022-11-29T09:58:22.578Z,7.88
2022-11-29T10:01:16.724Z,8.52
2022-11-29T10:04:05.706Z,7.78
2022-11-29T10:07:21.548Z,7.93
2022-11-29T10:10:15.359Z,7.63
2022-11-29T10:13:12.557Z,7.50
2022-11-29T10:16:13.275Z,7.43
2022-11-29T10:19:06.099Z,9.52
2022-11-29T10:22:24.959Z,8.40
2022-11-29T10:25:19.202Z,9.23
2022-11-29T10:28:09.157Z,8.15
2022-11-29T10:30:56.506Z,8.77
2022-11-29T10:33:43.051Z,8.48
2022-11-29T10:36:47.656Z,8.32
2022-11-29T10:39:39.765Z,7.78
2022-11-29T10:42:46.947Z,12.68
2022-11-29T10:45:38.990Z,9.45
2022-11-29T10:48:33.431Z,8.65
2022-11-29T10:51:19.437Z,6.80
2022-11-29T10:54:23.513Z,5.38
2022-11-29T10:57:15.011Z,6.13
2022-11-29T11:00:06.747Z,7.35
2022-11-29T11:02:52.496Z,8.50
2022-11-29T11:05:39.216Z,9.10
2022-11-29T11:08:26.445Z,8.77
2022-11-29T11:11:12.994Z,8.45
2022-11-29T11:14:01.864Z,7.32
2022-11-29T11:16:48.048Z,6.80
2022-11-29T11:19:34.734Z,5.95
2022-11-29T11:22:23.369Z,5.88
2022-11-29T11:25:25.765Z,5.93
2022-11-29T11:28:15.664Z,7.68
2022-11-29T11:31:05.660Z,6.25
2022-11-29T11:36:36.373Z,5.88
2022-11-29T11:39:23.772Z,5.60
2022-11-29T11:42:35.418Z,6.10
2022-11-29T11:45:36.583Z,5.78
2022-11-29T11:48:22.877Z,6.13
2022-11-29T11:51:24.441Z,6.13
2022-11-29T11:54:15.320Z,4.97
2022-11-29T11:57:00.919Z,3.10
2022-11-29T11:59:51.221Z,2.40
2022-11-29T12:05:23.388Z,3.63
2022-11-29T12:08:13.093Z,2.45
2022-11-29T12:11:07.360Z,2.40
2022-11-29T12:13:57.950Z,2.50
2022-11-29T12:16:46.962Z,2.50
2022-11-29T12:19:40.912Z,3.20
2022-11-29T12:22:30.729Z,3.08
2022-11-29T12:25:29.439Z,2.92
2022-11-29T12:28:20.546Z,3.13
2022-11-29T12:31:31.969Z,4.80
2022-11-29T12:34:50.485Z,7.80
2022-11-29T12:37:51.056Z,4.65
2022-11-29T12:41:05.591Z,3.10
2022-11-29T12:43:54.587Z,2.22
2022-11-29T12:46:45.272Z,3.42
2022-11-29T12:49:45.795Z,2.67
2022-11-29T12:52:40.368Z,3.17
2022-11-29T12:55:44.505Z,5.70
2022-11-29T12:58:45.585Z,4.22
2022-11-29T13:01:34.570Z,4.78
2022-11-29T13:04:29.112Z,4.15
2022-11-29T13:07:39.789Z,11.60
2022-11-29T13:10:28.750Z,7.13
2022-11-29T13:13:26.524Z,6.40
2022-11-29T13:16:43.582Z,7.72
2022-11-29T13:19:35.222Z,10.95
2022-11-29T13:23:17.288Z,10.23
2022-11-29T13:26:06.962Z,6.50
2022-11-29T13:28:53.413Z,5.82
2022-11-29T13:31:39.458Z,5.72
2022-11-29T13:34:32.488Z,4.13
2022-11-29T13:37:20.997Z,4.68
2022-11-29T13:40:37.286Z,4.53
2022-11-29T13:43:41.389Z,4.47
2022-11-29T13:46:36.081Z,5.13
2022-11-29T13:50:02.144Z,3.95
2022-11-29T13:52:48.100Z,3.92
2022-11-29T13:55:34.298Z,3.95
2022-11-29T13:58:28.974Z,4.05
2022-11-29T14:01:14.959Z,3.83
2022-11-29T14:04:16.178Z,4.22
2022-11-29T14:07:03.091Z,4.35
2022-11-29T14:10:02.194Z,5.10
2022-11-29T14:12:56.030Z,4.80
2022-11-29T14:15:42.884Z,5.18
2022-11-29T14:19:04.595Z,6.05
2022-11-29T14:22:17.285Z,7.13
2022-11-29T14:25:49.791Z,6.57
2022-11-29T14:28:31.783Z,7.60
2022-11-29T14:31:50.283Z,7.30
2022-11-29T14:34:42.008Z,10.32
2022-11-29T14:37:43.038Z,7.30
2022-11-29T14:40:41.365Z,7.22
2022-11-29T14:43:35.931Z,7.85
2022-11-29T14:46:30.457Z,7.93
2022-11-29T14:49:25.386Z,9.00
2022-11-29T14:52:13.961Z,8.02
2022-11-29T14:55:14.355Z,8.05
2022-11-29T14:58:06.312Z,8.73
2022-11-29T15:01:08.127Z,9.05
2022-11-29T15:03:56.148Z,9.43
2022-11-29T15:06:47.480Z,10.18
2022-11-29T15:09:38.266Z,11.10
2022-11-29T15:12:28.646Z,10.18
2022-11-29T15:15:43.191Z,9.85
2022-11-29T15:18:59.642Z,10.35
2022-11-29T15:21:58.258Z,10.05
2022-11-29T15:24:56.864Z,12.80
2022-11-29T15:27:56.459Z,13.95
2022-11-29T15:30:42.986Z,14.50
2022-11-29T15:33:29.516Z,13.70
2022-11-29T15:36:24.312Z,10.90
2022-11-29T15:39:28.355Z,9.90
2022-11-29T15:42:18.420Z,9.95
2022-11-29T15:45:28.114Z,9.77
2022-11-29T15:48:29.586Z,7.55
2022-11-29T15:51:34.176Z,7.28
2022-11-29T15:54:38.808Z,7.80
2022-11-29T15:57:30.455Z,6.63
2022-11-29T16:00:23.819Z,7.70
2022-11-29T16:03:19.691Z,7.53
2022-11-29T16:06:23.361Z,6.72
2022-11-29T16:09:16.142Z,8.38
2022-11-29T16:12:02.316Z,11.75
2022-11-29T16:14:52.380Z,9.65
2022-11-29T16:20:25.688Z,10.18
2022-11-29T16:23:14.383Z,12.57
2022-11-29T16:26:16.158Z,9.38
2022-11-29T16:29:01.789Z,21.92
2022-11-29T16:31:47.647Z,12.30
2022-11-29T16:34:33.947Z,10.30
2022-11-29T16:37:30.309Z,9.30
2022-11-29T16:40:29.472Z,10.25
2022-11-29T16:43:42.611Z,18.13
2022-11-29T16:46:30.739Z,17.48
2022-11-29T16:49:35.533Z,14.23
2022-11-29T16:52:26.505Z,12.40
2022-11-29T16:55:12.097Z,17.98
2022-11-29T16:57:58.008Z,14.43
2022-11-29T17:00:43.648Z,13.63
2022-11-29T17:03:29.352Z,10.30
2022-11-29T17:06:16.738Z,9.65
2022-11-29T17:09:02.771Z,10.10
2022-11-29T17:11:49.365Z,10.18
2022-11-29T17:14:34.986Z,9.40
2022-11-29T17:17:20.695Z,10.73
2022-11-29T17:20:07.762Z,9.40
2022-11-29T17:22:53.296Z,9.77
2022-11-29T17:25:38.958Z,9.95
2022-11-29T17:28:24.478Z,9.50
2022-11-29T17:31:11.549Z,9.98
2022-11-29T17:34:00.068Z,9.07
2022-11-29T17:36:46.017Z,9.73
2022-11-29T17:39:32.279Z,9.73
2022-11-29T17:42:17.909Z,9.48
2022-11-29T17:45:03.629Z,9.43
2022-11-29T17:47:52.880Z,10.75
2022-11-29T17:50:38.970Z,15.77
2022-11-29T17:53:24.277Z,15.25
2022-11-29T17:56:12.204Z,13.93
2022-11-29T17:59:00.216Z,12.38
2022-11-29T18:01:47.412Z,12.88
2022-11-29T18:04:33.131Z,12.27
2022-11-29T18:07:19.389Z,12.63
2022-11-29T18:10:06.519Z,12.40
2022-11-29T18:12:52.485Z,12.02
2022-11-29T18:15:38.753Z,11.02
2022-11-29T18:18:24.348Z,12.43
2022-11-29T18:21:11.961Z,11.13
2022-11-29T18:24:00.195Z,10.85
2022-11-29T18:26:46.037Z,10.60
2022-11-29T18:29:37.630Z,10.35
2022-11-29T18:32:24.665Z,9.93
2022-11-29T18:35:11.813Z,9.20
2022-11-29T18:38:14.702Z,9.32
2022-11-29T18:41:15.834Z,9.45
2022-11-29T18:44:07.449Z,9.63
2022-11-29T18:46:53.399Z,9.50
2022-11-29T18:49:38.746Z,11.13
2022-11-29T18:52:24.448Z,10.43
2022-11-29T18:55:10.055Z,10.13
2022-11-29T18:57:55.577Z,10.75
2022-11-29T19:00:42.231Z,10.50
2022-11-29T19:03:27.559Z,9.82
2022-11-29T19:06:19.409Z,11.32
2022-11-29T19:09:05.955Z,16.30
2022-11-29T19:11:51.913Z,14.27
2022-11-29T19:14:38.612Z,12.80
2022-11-29T19:17:24.497Z,9.88
2022-11-29T19:20:11.317Z,11.75
2022-11-29T19:23:00.734Z,22.58
2022-11-29T19:25:46.752Z,18.52
2022-11-29T19:28:34.834Z,14.30
2022-11-29T19:31:25.083Z,13.55
2022-11-29T19:34:11.252Z,11.40
2022-11-29T19:36:57.126Z,10.95
2022-11-29T19:39:44.522Z,11.27
2022-11-29T19:42:30.241Z,11.60
2022-11-29T19:45:17.532Z,15.65
2022-11-29T19:48:04.151Z,9.60
2022-11-29T19:50:49.871Z,9.88
2022-11-29T19:53:36.206Z,9.55
2022-11-29T19:56:22.836Z,10.07
2022-11-29T19:59:08.695Z,9.40
2022-11-29T20:01:54.926Z,9.23
2022-11-29T20:04:40.495Z,9.35
2022-11-29T20:07:26.170Z,8.85
2022-11-29T20:10:11.990Z,10.05
2022-11-29T20:12:59.079Z,10.38
2022-11-29T20:15:45.783Z,9.10
2022-11-29T20:18:35.966Z,10.27
2022-11-29T20:21:24.723Z,9.68
2022-11-29T20:24:13.374Z,9.05
2022-11-29T20:26:59.207Z,9.38
2022-11-29T20:29:45.440Z,10.32
2022-11-29T20:32:32.842Z,10.65
2022-11-29T20:35:18.858Z,9.80
2022-11-29T20:38:21.892Z,10.30
2022-11-29T20:41:41.569Z,9.45
2022-11-29T20:44:40.082Z,10.17
2022-11-29T20:47:47.336Z,10.70
2022-11-29T20:50:33.538Z,10.80
2022-11-29T20:53:41.704Z,10.10
2022-11-29T20:56:27.641Z,10.23
2022-11-29T20:59:13.618Z,9.07
2022-11-29T21:02:01.187Z,9.30
2022-11-29T21:04:46.883Z,8.85
2022-11-29T21:07:34.228Z,9.32
2022-11-29T21:10:20.202Z,8.82
2022-11-29T21:13:06.272Z,9.00
2022-11-29T21:15:52.510Z,8.55
2022-11-29T21:18:38.614Z,9.70
2022-11-29T21:21:36.504Z,8.90
2022-11-29T21:25:12.160Z,8.60
2022-11-29T21:27:57.857Z,9.80
2022-11-29T21:30:44.018Z,9.82
2022-11-29T21:33:30.213Z,9.70
2022-11-29T21:36:16.144Z,12.75
2022-11-29T21:39:05.134Z,15.65
2022-11-29T21:41:51.323Z,10.93
2022-11-29T21:44:36.771Z,10.82
2022-11-29T21:47:22.179Z,19.13
2022-11-29T21:50:08.431Z,22.85
2022-11-29T21:52:54.320Z,13.48
2022-11-29T21:55:40.196Z,10.00
2022-11-29T21:58:28.204Z,9.25
2022-11-29T22:01:19.242Z,10.02
2022-11-29T22:04:05.138Z,8.55
2022-11-29T22:06:50.778Z,8.63
2022-11-29T22:09:36.286Z,8.73
2022-11-29T22:12:36.735Z,8.93
2022-11-29T22:15:24.986Z,9.52
2022-11-29T22:18:11.862Z,7.53
2022-11-29T22:21:05.668Z,9.40
2022-11-29T22:23:52.735Z,9.02
2022-11-29T22:26:40.730Z,9.02
2022-11-29T22:29:26.689Z,9.02
2022-11-29T22:32:12.034Z,9.02
2022-11-29T22:34:57.642Z,8.10
2022-11-29T22:37:43.253Z,7.43
2022-11-29T22:40:28.774Z,7.88
2022-11-29T22:43:14.195Z,7.43
2022-11-29T22:46:13.951Z,8.13
2022-11-29T22:51:46.326Z,7.32
2022-11-29T22:54:31.856Z,7.05
2022-11-29T22:57:17.463Z,7.18
2022-11-29T23:00:03.729Z,6.65
2022-11-29T23:02:49.011Z,6.38
2022-11-29T23:05:34.506Z,6.10
2022-11-29T23:08:20.107Z,6.50
2022-11-29T23:11:08.711Z,6.72
2022-11-29T23:13:56.155Z,6.22
2022-11-29T23:16:42.173Z,6.95
2022-11-29T23:19:29.174Z,6.60
2022-11-29T23:22:14.603Z,6.85
2022-11-29T23:25:00.200Z,7.10
2022-11-29T23:27:45.729Z,7.03
2022-11-29T23:30:32.344Z,7.32
2022-11-29T23:33:18.858Z,7.30
2022-11-29T23:36:06.913Z,7.18
2022-11-29T23:38:52.178Z,7.82
2022-11-29T23:41:37.637Z,8.70
2022-11-29T23:44:23.333Z,9.35
2022-11-29T23:47:09.081Z,8.57
2022-11-29T23:49:54.421Z,9.95
2022-11-29T23:52:40.105Z,8.77
2022-11-29T23:55:26.471Z,7.93
2022-11-29T23:58:12.174Z,6.30
